createdAt,value
2018-11-28T00:00:17.286Z,0.52
2018-11-28T00:01:17.307Z,0.55
2018-11-28T00:02:17.327Z,0.48
2018-11-28T00:03:17.350Z,0.44
2018-11-28T00:04:17.375Z,0.45
2018-11-28T00:05:17.396Z,0.47
2018-11-28T00:06:17.422Z,0.40
2018-11-28T00:07:17.442Z,0.30
2018-11-28T00:08:17.463Z,0.30
2018-11-28T00:09:17.493Z,0.27
2018-11-28T00:10:17.510Z,0.34
2018-11-28T00:11:17.530Z,0.18
2018-11-28T00:12:17.555Z,0.20
2018-11-28T00:13:17.578Z,0.40
2018-11-28T00:14:17.601Z,0.37
2018-11-28T00:15:17.624Z,0.45
2018-11-28T00:16:17.642Z,0.42
2018-11-28T00:17:17.667Z,0.31
2018-11-28T00:18:17.686Z,0.19
2018-11-28T00:19:17.710Z,0.09
2018-11-28T00:20:17.735Z,0.06
2018-11-28T00:21:17.754Z,0.00
2018-11-28T00:22:17.776Z,0.02
2018-11-28T00:23:17.800Z,0.08
2018-11-28T00:24:17.824Z,-0.13
2018-11-28T00:25:17.846Z,-0.06
2018-11-28T00:26:17.865Z,-0.15
2018-11-28T00:27:17.889Z,-0.21
2018-11-28T00:28:17.911Z,-0.12
2018-11-28T00:29:17.937Z,-0.26
2018-11-28T00:30:17.958Z,-0.26
2018-11-28T00:31:17.975Z,-0.23
2018-11-28T00:32:18.000Z,-0.27
2018-11-28T00:33:18.021Z,-0.26
2018-11-28T00:34:18.042Z,-0.24
2018-11-28T00:35:18.074Z,-0.21
2018-11-28T00:36:18.087Z,-0.26
2018-11-28T00:37:18.113Z,-0.30
2018-11-28T00:38:18.132Z,-0.45
2018-11-28T00:39:18.154Z,-0.41
2018-11-28T00:40:18.178Z,-0.51
2018-11-28T00:41:18.204Z,-0.46
2018-11-28T00:42:18.223Z,-0.35
2018-11-28T00:43:18.241Z,-0.12
2018-11-28T00:44:18.264Z,-0.13
2018-11-28T00:45:18.293Z,-0.12
2018-11-28T00:46:18.311Z,0.02
2018-11-28T00:47:18.335Z,0.06
2018-11-28T00:48:18.352Z,0.15
2018-11-28T00:49:18.373Z,0.06
2018-11-28T00:50:18.394Z,-0.02
2018-11-28T00:51:18.418Z,-0.03
2018-11-28T00:52:18.439Z,-0.07
2018-11-28T00:53:18.463Z,-0.10
2018-11-28T00:54:18.483Z,-0.23
2018-11-28T00:55:18.513Z,-0.12
2018-11-28T00:56:18.531Z,-0.15
2018-11-28T00:57:18.553Z,-0.20
2018-11-28T00:58:18.574Z,-0.23
2018-11-28T00:59:18.598Z,-0.21
2018-11-28T01:00:18.617Z,-0.21
2018-11-28T01:01:18.639Z,-0.20
2018-11-28T01:02:18.670Z,-0.17
2018-11-28T01:03:18.684Z,-0.24
2018-11-28T01:04:18.704Z,-0.24
2018-11-28T01:05:18.734Z,-0.20
2018-11-28T01:06:18.749Z,-0.24
2018-11-28T01:07:18.774Z,-0.24
2018-11-28T01:08:18.797Z,-0.28
2018-11-28T01:09:18.816Z,-0.28
2018-11-28T01:10:18.838Z,-0.36
2018-11-28T01:11:18.863Z,-0.21
2018-11-28T01:12:18.886Z,-0.31
2018-11-28T01:13:18.905Z,-0.24
2018-11-28T01:14:18.926Z,-0.35
2018-11-28T01:15:18.950Z,-0.42
2018-11-28T01:16:18.971Z,-0.46
2018-11-28T01:17:18.995Z,-0.56
2018-11-28T01:18:19.014Z,-0.67
2018-11-28T01:19:19.036Z,-0.59
2018-11-28T01:20:19.057Z,-0.63
2018-11-28T01:21:19.087Z,-0.57
2018-11-28T01:22:19.103Z,-0.62
2018-11-28T01:23:19.126Z,-0.75
2018-11-28T01:24:19.144Z,-0.82
2018-11-28T01:25:19.172Z,-0.75
2018-11-28T01:26:19.189Z,-0.84
2018-11-28T01:27:19.211Z,-0.82
2018-11-28T01:28:19.236Z,-0.64
2018-11-28T01:29:19.256Z,-0.49
2018-11-28T01:30:19.283Z,-0.36
2018-11-28T01:31:19.299Z,-0.41
2018-11-28T01:32:19.324Z,-0.39
2018-11-28T01:33:19.344Z,-0.54
2018-11-28T01:34:19.364Z,-0.53
2018-11-28T01:35:19.389Z,-0.44
2018-11-28T01:36:19.406Z,-0.20
2018-11-28T01:37:19.428Z,-0.12
2018-11-28T01:38:19.449Z,-0.13
2018-11-28T01:39:19.473Z,-0.23
2018-11-28T01:40:19.493Z,-0.23
2018-11-28T01:41:19.515Z,-0.33
2018-11-28T01:42:19.538Z,-0.33
2018-11-28T01:43:19.558Z,-0.46
2018-11-28T01:44:19.583Z,-0.45
2018-11-28T01:45:19.603Z,-0.51
2018-11-28T01:46:19.624Z,-0.51
2018-11-28T01:47:19.645Z,-0.51
2018-11-28T01:48:19.670Z,-0.57
2018-11-28T01:49:19.691Z,-0.62
2018-11-28T01:50:19.716Z,-0.59
2018-11-28T01:51:19.734Z,-0.53
2018-11-28T01:52:19.756Z,-0.56
2018-11-28T01:53:19.780Z,-0.59
2018-11-28T01:54:19.798Z,-0.56
2018-11-28T01:55:19.827Z,-0.57
2018-11-28T01:56:19.843Z,-0.59
2018-11-28T01:57:19.868Z,-0.59
2018-11-28T01:58:19.888Z,-0.63
2018-11-28T01:59:19.911Z,-0.64
2018-11-28T02:00:19.932Z,-0.64
2018-11-28T02:01:19.951Z,-0.60
2018-11-28T02:02:19.972Z,-0.54
2018-11-28T02:03:19.995Z,-0.51
2018-11-28T02:04:20.017Z,-0.59
2018-11-28T02:05:20.038Z,-0.54
2018-11-28T02:06:20.062Z,-0.54
2018-11-28T02:07:20.081Z,-0.54
2018-11-28T02:08:20.107Z,-0.51
2018-11-28T02:09:20.133Z,-0.54
2018-11-28T02:10:20.146Z,-0.70
2018-11-28T02:11:20.169Z,-0.78
2018-11-28T02:12:20.192Z,-0.77
2018-11-28T02:13:20.218Z,-0.66
2018-11-28T02:14:20.235Z,-0.74
2018-11-28T02:15:20.256Z,-0.82
2018-11-28T02:16:20.280Z,-0.84
2018-11-28T02:17:20.299Z,-0.66
2018-11-28T02:18:20.319Z,-0.64
2018-11-28T02:19:20.348Z,-0.67
2018-11-28T02:20:20.364Z,-0.69
2018-11-28T02:21:20.387Z,-0.69
2018-11-28T02:22:20.406Z,-0.77
2018-11-28T02:23:20.430Z,-0.75
2018-11-28T02:24:20.451Z,-0.74
2018-11-28T02:25:20.474Z,-0.82
2018-11-28T02:26:20.495Z,-0.66
2018-11-28T02:27:20.521Z,-0.64
2018-11-28T02:28:20.539Z,-0.57
2018-11-28T02:29:20.558Z,-0.56
2018-11-28T02:30:20.583Z,-0.46
2018-11-28T02:31:20.607Z,-0.38
2018-11-28T02:32:20.626Z,-0.45
2018-11-28T02:33:20.647Z,-0.44
2018-11-28T02:34:20.670Z,-0.57
2018-11-28T02:35:20.691Z,-0.60
2018-11-28T02:36:20.715Z,-0.64
2018-11-28T02:37:20.734Z,-0.63
2018-11-28T02:38:20.758Z,-0.62
2018-11-28T02:39:20.780Z,-0.66
2018-11-28T02:40:20.818Z,-0.72
2018-11-28T02:41:20.823Z,-0.57
2018-11-28T02:42:20.847Z,-0.53
2018-11-28T02:43:20.865Z,-0.54
2018-11-28T02:44:20.889Z,-0.59
2018-11-28T02:45:20.906Z,-0.54
2018-11-28T02:46:20.927Z,-0.53
2018-11-28T02:47:20.954Z,-0.63
2018-11-28T02:48:20.971Z,-0.69
2018-11-28T02:49:20.993Z,-0.59
2018-11-28T02:50:21.015Z,-0.62
2018-11-28T02:51:21.042Z,-0.57
2018-11-28T02:52:21.063Z,-0.54
2018-11-28T02:53:21.082Z,-0.63
2018-11-28T02:54:21.103Z,-0.63
2018-11-28T02:55:21.124Z,-0.64
2018-11-28T02:56:21.147Z,-0.63
2018-11-28T02:57:21.168Z,-0.67
2018-11-28T02:58:21.195Z,-0.75
2018-11-28T02:59:21.211Z,-0.75
2018-11-28T03:00:21.240Z,-0.78
2018-11-28T03:01:21.255Z,-0.82
2018-11-28T03:02:21.280Z,-0.78
2018-11-28T03:03:21.448Z,-0.91
2018-11-28T03:04:21.321Z,-0.87
2018-11-28T03:05:21.363Z,-0.93
2018-11-28T03:06:21.365Z,-0.97
2018-11-28T03:07:21.387Z,-0.96
2018-11-28T03:08:21.412Z,-1.15
2018-11-28T03:09:21.434Z,-1.14
2018-11-28T03:10:21.452Z,-1.15
2018-11-28T03:11:21.473Z,-1.22
2018-11-28T03:12:21.497Z,-1.29
2018-11-28T03:13:21.519Z,-1.30
2018-11-28T03:14:21.613Z,-1.32
2018-11-28T03:15:21.563Z,-1.30
2018-11-28T03:16:21.583Z,-1.48
2018-11-28T03:17:21.606Z,-1.57
2018-11-28T03:18:21.628Z,-1.58
2018-11-28T03:19:21.648Z,-1.42
2018-11-28T03:20:21.668Z,-1.35
2018-11-28T03:21:21.693Z,-1.32
2018-11-28T03:22:21.710Z,-1.12
2018-11-28T03:23:21.732Z,-1.14
2018-11-28T03:24:21.762Z,-1.14
2018-11-28T03:25:21.776Z,-1.14
2018-11-28T03:26:21.799Z,-0.94
2018-11-28T03:27:21.819Z,-1.07
2018-11-28T03:28:21.841Z,-0.97
2018-11-28T03:29:21.865Z,-1.11
2018-11-28T03:30:21.887Z,-0.99
2018-11-28T03:31:21.908Z,-1.00
2018-11-28T03:32:21.925Z,-1.12
2018-11-28T03:33:21.947Z,-1.14
2018-11-28T03:34:21.971Z,-1.15
2018-11-28T03:35:22.095Z,-1.21
2018-11-28T03:36:22.015Z,-1.29
2018-11-28T03:37:22.035Z,-1.40
2018-11-28T03:38:22.059Z,-1.35
2018-11-28T03:39:22.076Z,-1.32
2018-11-28T03:40:22.101Z,-1.36
2018-11-28T03:41:22.119Z,-1.50
2018-11-28T03:42:22.140Z,-1.32
2018-11-28T03:43:22.162Z,-1.30
2018-11-28T03:44:22.184Z,-1.21
2018-11-28T03:45:22.206Z,-1.25
2018-11-28T03:46:22.229Z,-1.21
2018-11-28T03:47:22.248Z,-1.27
2018-11-28T03:48:22.271Z,-1.22
2018-11-28T03:49:22.296Z,-1.12
2018-11-28T03:50:22.362Z,-1.03
2018-11-28T03:51:22.340Z,-0.96
2018-11-28T03:52:22.358Z,-0.91
2018-11-28T03:53:22.379Z,-0.78
2018-11-28T03:54:22.402Z,-0.85
2018-11-28T03:55:22.424Z,-0.60
2018-11-28T03:56:22.469Z,-0.46
2018-11-28T03:57:22.467Z,-0.27
2018-11-28T03:58:22.492Z,-0.31
2018-11-28T03:59:22.510Z,-0.12
2018-11-28T04:00:22.534Z,-0.09
2018-11-28T04:01:22.555Z,0.11
2018-11-28T04:02:22.576Z,0.19
2018-11-28T04:03:22.599Z,0.24
2018-11-28T04:04:22.625Z,0.36
2018-11-28T04:05:22.655Z,0.29
2018-11-28T04:06:22.664Z,0.33
2018-11-28T04:07:22.701Z,0.24
2018-11-28T04:08:22.714Z,0.29
2018-11-28T04:09:22.734Z,0.42
2018-11-28T04:10:22.756Z,0.44
2018-11-28T04:11:22.778Z,0.44
2018-11-28T04:12:22.797Z,0.27
2018-11-28T04:13:22.825Z,0.37
2018-11-28T04:14:22.846Z,0.40
2018-11-28T04:15:22.864Z,0.44
2018-11-28T04:16:22.888Z,0.45
2018-11-28T04:17:22.915Z,0.45
2018-11-28T04:18:22.930Z,0.49
2018-11-28T04:19:22.957Z,0.45
2018-11-28T04:20:22.981Z,0.45
2018-11-28T04:21:22.998Z,0.45
2018-11-28T04:22:23.022Z,0.47
2018-11-28T04:23:23.043Z,0.59
2018-11-28T04:24:23.066Z,0.42
2018-11-28T04:25:23.088Z,0.47
2018-11-28T04:26:23.113Z,0.42
2018-11-28T04:27:23.133Z,0.42
2018-11-28T04:28:23.157Z,0.27
2018-11-28T04:29:23.177Z,0.26
2018-11-28T04:30:23.202Z,0.30
2018-11-28T04:31:23.234Z,0.26
2018-11-28T04:32:23.248Z,0.30
2018-11-28T04:33:23.267Z,0.27
2018-11-28T04:34:23.291Z,0.33
2018-11-28T04:35:23.321Z,0.39
2018-11-28T04:36:23.336Z,0.44
2018-11-28T04:37:23.358Z,0.40
2018-11-28T04:38:23.380Z,0.37
2018-11-28T04:39:23.401Z,0.39
2018-11-28T04:40:23.428Z,0.31
2018-11-28T04:41:23.447Z,0.45
2018-11-28T04:42:23.469Z,0.45
2018-11-28T04:43:23.494Z,0.45
2018-11-28T04:44:23.514Z,0.44
2018-11-28T04:45:23.551Z,0.40
2018-11-28T04:46:23.564Z,0.40
2018-11-28T04:47:23.584Z,0.47
2018-11-28T04:48:23.603Z,0.49
2018-11-28T04:49:23.627Z,0.49
2018-11-28T04:50:23.650Z,0.55
2018-11-28T04:51:23.671Z,0.49
2018-11-28T04:52:23.696Z,0.48
2018-11-28T04:53:23.717Z,0.47
2018-11-28T04:54:23.738Z,0.44
2018-11-28T04:55:23.771Z,0.51
2018-11-28T04:56:23.783Z,0.59
2018-11-28T04:57:23.815Z,0.47
2018-11-28T04:58:23.830Z,0.49
2018-11-28T04:59:23.851Z,0.45
2018-11-28T05:00:23.880Z,0.39
2018-11-28T05:01:23.900Z,0.47
2018-11-28T05:02:23.920Z,0.58
2018-11-28T05:03:23.939Z,0.56
2018-11-28T05:04:23.962Z,0.56
2018-11-28T05:05:24.000Z,0.45
2018-11-28T05:06:24.007Z,0.47
2018-11-28T05:07:24.036Z,0.45
2018-11-28T05:08:24.055Z,0.42
2018-11-28T05:09:24.081Z,0.42
2018-11-28T05:10:24.098Z,0.39
2018-11-28T05:11:24.129Z,0.42
2018-11-28T05:12:24.147Z,0.44
2018-11-28T05:13:24.169Z,0.39
2018-11-28T05:14:24.194Z,0.39
2018-11-28T05:15:24.210Z,0.44
2018-11-28T05:16:24.236Z,0.48
2018-11-28T05:17:24.257Z,0.49
2018-11-28T05:18:24.277Z,0.51
2018-11-28T05:19:24.300Z,0.48
2018-11-28T05:20:24.322Z,0.44
2018-11-28T05:21:24.344Z,0.44
2018-11-28T05:22:24.366Z,0.34
2018-11-28T05:23:24.387Z,0.27
2018-11-28T05:24:24.410Z,0.30
2018-11-28T05:25:24.438Z,0.37
2018-11-28T05:26:24.507Z,0.31
2018-11-28T05:27:24.484Z,0.31
2018-11-28T05:28:24.504Z,0.36
2018-11-28T05:29:24.523Z,0.30
2018-11-28T05:30:24.545Z,0.24
2018-11-28T05:31:24.568Z,0.39
2018-11-28T05:32:24.590Z,0.20
2018-11-28T05:33:24.615Z,0.19
2018-11-28T05:34:24.634Z,0.34
2018-11-28T05:35:24.659Z,0.27
2018-11-28T05:36:24.682Z,0.30
2018-11-28T05:37:24.703Z,0.34
2018-11-28T05:38:24.725Z,0.40
2018-11-28T05:39:24.748Z,0.31
2018-11-28T05:40:24.775Z,0.34
2018-11-28T05:41:24.795Z,0.40
2018-11-28T05:42:24.816Z,0.45
2018-11-28T05:43:24.840Z,0.40
2018-11-28T05:44:24.861Z,0.42
2018-11-28T05:45:24.886Z,0.45
2018-11-28T05:46:24.904Z,0.47
2018-11-28T05:47:24.926Z,0.40
2018-11-28T05:48:24.950Z,0.31
2018-11-28T05:49:24.977Z,0.37
2018-11-28T05:50:24.996Z,0.37
2018-11-28T05:51:25.018Z,0.44
2018-11-28T05:52:25.041Z,0.47
2018-11-28T05:53:25.066Z,0.59
2018-11-28T05:54:25.085Z,0.59
2018-11-28T05:55:25.109Z,0.51
2018-11-28T05:56:25.131Z,0.45
2018-11-28T05:57:25.153Z,0.44
2018-11-28T05:58:25.173Z,0.45
2018-11-28T05:59:27.494Z,0.37
2018-11-28T06:00:25.221Z,0.49
2018-11-28T06:01:25.244Z,0.45
2018-11-28T06:02:25.264Z,0.48
2018-11-28T06:03:25.286Z,0.45
2018-11-28T06:04:25.309Z,0.47
2018-11-28T06:05:25.336Z,0.39
2018-11-28T06:06:25.355Z,0.40
2018-11-28T06:07:25.376Z,0.42
2018-11-28T06:08:25.400Z,0.42
2018-11-28T06:09:25.422Z,0.47
2018-11-28T06:10:25.447Z,0.47
2018-11-28T06:11:25.467Z,0.49
2018-11-28T06:12:25.490Z,0.42
2018-11-28T06:13:25.515Z,0.55
2018-11-28T06:14:25.539Z,0.40
2018-11-28T06:15:25.557Z,0.44
2018-11-28T06:16:25.584Z,0.42
2018-11-28T06:17:25.603Z,0.45
2018-11-28T06:18:25.626Z,0.40
2018-11-28T06:19:25.647Z,0.42
2018-11-28T06:20:25.671Z,0.45
2018-11-28T06:21:25.694Z,0.42
2018-11-28T06:22:25.715Z,0.47
2018-11-28T06:23:25.738Z,0.55
2018-11-28T06:24:25.763Z,0.58
2018-11-28T06:25:25.784Z,0.58
2018-11-28T06:26:25.807Z,0.64
2018-11-28T06:27:25.830Z,0.58
2018-11-28T06:28:25.853Z,0.42
2018-11-28T06:29:25.873Z,0.48
2018-11-28T06:30:25.895Z,0.47
2018-11-28T06:31:25.922Z,0.42
2018-11-28T06:32:25.940Z,0.48
2018-11-28T06:33:25.962Z,0.44
2018-11-28T06:34:25.985Z,0.49
2018-11-28T06:35:26.009Z,0.47
2018-11-28T06:36:26.035Z,0.44
2018-11-28T06:37:26.052Z,0.42
2018-11-28T06:38:26.075Z,0.33
2018-11-28T06:39:26.097Z,0.40
2018-11-28T06:40:26.121Z,0.20
2018-11-28T06:41:26.151Z,0.48
2018-11-28T06:42:26.165Z,0.33
2018-11-28T06:43:26.187Z,0.39
2018-11-28T06:44:26.217Z,0.39
2018-11-28T06:45:26.236Z,0.42
2018-11-28T06:46:26.254Z,0.31
2018-11-28T06:47:26.278Z,0.34
2018-11-28T06:48:26.300Z,0.33
2018-11-28T06:49:26.324Z,0.39
2018-11-28T06:50:26.351Z,0.45
2018-11-28T06:51:26.370Z,0.45
2018-11-28T06:52:26.391Z,0.45
2018-11-28T06:53:26.413Z,0.48
2018-11-28T06:54:26.441Z,0.47
2018-11-28T06:55:26.457Z,0.45
2018-11-28T06:56:26.480Z,0.42
2018-11-28T06:57:26.503Z,0.44
2018-11-28T06:58:26.525Z,0.51
2018-11-28T06:59:26.548Z,0.48
2018-11-28T07:00:26.571Z,0.49
2018-11-28T07:01:26.591Z,0.44
2018-11-28T07:02:26.623Z,0.49
2018-11-28T07:03:26.641Z,0.49
2018-11-28T07:04:26.662Z,0.51
2018-11-28T07:05:26.683Z,0.49
2018-11-28T07:06:26.705Z,0.48
2018-11-28T07:07:26.730Z,0.42
2018-11-28T07:08:26.751Z,0.44
2018-11-28T07:09:26.776Z,0.48
2018-11-28T07:10:26.800Z,0.42
2018-11-28T07:11:26.817Z,0.44
2018-11-28T07:12:26.845Z,0.47
2018-11-28T07:13:26.863Z,0.51
2018-11-28T07:14:26.887Z,0.52
2018-11-28T07:15:26.908Z,0.51
2018-11-28T07:16:27.170Z,0.56
2018-11-28T07:17:26.954Z,0.49
2018-11-28T07:18:26.975Z,0.59
2018-11-28T07:19:26.998Z,0.59
2018-11-28T07:20:27.021Z,0.55
2018-11-28T07:21:27.044Z,0.47
2018-11-28T07:22:27.066Z,0.51
2018-11-28T07:23:27.091Z,0.45
2018-11-28T07:24:27.110Z,0.51
2018-11-28T07:25:27.136Z,0.55
2018-11-28T07:26:27.158Z,0.56
2018-11-28T07:27:27.182Z,0.51
2018-11-28T07:28:27.203Z,0.47
2018-11-28T07:29:27.228Z,0.48
2018-11-28T07:30:27.247Z,0.48
2018-11-28T07:31:27.271Z,0.48
2018-11-28T07:32:27.296Z,0.59
2018-11-28T07:33:27.318Z,0.58
2018-11-28T07:34:27.340Z,0.63
2018-11-28T07:35:27.363Z,0.52
2018-11-28T07:36:27.383Z,0.56
2018-11-28T07:37:27.409Z,0.63
2018-11-28T07:38:27.428Z,0.67
2018-11-28T07:39:27.452Z,0.68
2018-11-28T07:40:27.477Z,0.61
2018-11-28T07:41:27.496Z,0.63
2018-11-28T07:42:27.524Z,0.59
2018-11-28T07:43:27.542Z,0.66
2018-11-28T07:44:27.564Z,0.63
2018-11-28T07:45:27.595Z,0.64
2018-11-28T07:46:27.610Z,0.59
2018-11-28T07:47:27.632Z,0.61
2018-11-28T07:48:27.655Z,0.73
2018-11-28T07:49:27.678Z,0.70
2018-11-28T07:50:27.701Z,0.73
2018-11-28T07:51:27.723Z,0.70
2018-11-28T07:52:27.746Z,0.67
2018-11-28T07:53:27.771Z,0.73
2018-11-28T07:54:27.792Z,0.68
2018-11-28T07:55:27.816Z,0.64
2018-11-28T07:56:27.837Z,0.70
2018-11-28T07:57:27.860Z,0.70
2018-11-28T07:58:27.885Z,0.74
2018-11-28T07:59:27.906Z,0.73
2018-11-28T08:00:27.929Z,0.71
2018-11-28T08:01:27.953Z,0.63
2018-11-28T08:02:27.974Z,0.82
2018-11-28T08:03:27.997Z,0.85
2018-11-28T08:04:28.048Z,0.85
2018-11-28T08:05:28.046Z,0.91
2018-11-28T08:06:28.065Z,0.91
2018-11-28T08:07:28.088Z,0.84
2018-11-28T08:08:28.111Z,0.77
2018-11-28T08:09:28.136Z,0.85
2018-11-28T08:10:28.187Z,0.88
2018-11-28T08:11:28.180Z,0.88
2018-11-28T08:12:28.205Z,0.95
2018-11-28T08:13:28.227Z,0.99
2018-11-28T08:14:28.249Z,1.02
2018-11-28T08:15:28.278Z,0.94
2018-11-28T08:16:28.297Z,0.88
2018-11-28T08:17:28.323Z,0.81
2018-11-28T08:18:28.343Z,0.85
2018-11-28T08:19:28.367Z,0.85
2018-11-28T08:20:28.389Z,0.88
2018-11-28T08:21:28.409Z,0.81
2018-11-28T08:22:28.435Z,1.00
2018-11-28T08:23:28.457Z,1.04
2018-11-28T08:24:28.480Z,1.02
2018-11-28T08:25:28.504Z,0.88
2018-11-28T08:26:28.527Z,0.92
2018-11-28T08:27:28.551Z,1.00
2018-11-28T08:28:28.573Z,0.85
2018-11-28T08:29:28.597Z,0.84
2018-11-28T08:30:28.624Z,1.02
2018-11-28T08:31:28.648Z,0.94
2018-11-28T08:32:28.666Z,0.92
2018-11-28T08:33:28.690Z,0.89
2018-11-28T08:34:28.714Z,0.99
2018-11-28T08:35:28.735Z,0.91
2018-11-28T08:36:29.303Z,0.94
2018-11-28T08:37:28.787Z,0.96
2018-11-28T08:38:28.805Z,1.02
2018-11-28T08:39:28.832Z,1.06
2018-11-28T08:40:28.852Z,1.02
2018-11-28T08:41:28.878Z,1.06
2018-11-28T08:42:28.901Z,1.02
2018-11-28T08:43:28.919Z,1.16
2018-11-28T08:44:29.078Z,1.02
2018-11-28T08:45:28.970Z,1.02
2018-11-28T08:46:28.990Z,1.06
2018-11-28T08:47:29.015Z,1.02
2018-11-28T08:48:29.039Z,1.07
2018-11-28T08:49:29.067Z,1.12
2018-11-28T08:50:29.095Z,1.10
2018-11-28T08:51:29.111Z,1.16
2018-11-28T08:52:29.131Z,1.07
2018-11-28T08:53:29.210Z,1.06
2018-11-28T08:54:29.177Z,0.92
2018-11-28T08:55:29.203Z,0.85
2018-11-28T08:56:29.225Z,0.74
2018-11-28T08:57:29.249Z,0.56
2018-11-28T08:58:29.271Z,0.45
2018-11-28T08:59:29.298Z,0.48
2018-11-28T09:00:29.319Z,0.55
2018-11-28T09:01:29.346Z,0.47
2018-11-28T09:02:29.365Z,0.48
2018-11-28T09:03:29.392Z,0.52
2018-11-28T09:04:29.411Z,0.49
2018-11-28T09:05:29.435Z,0.55
2018-11-28T09:06:29.459Z,0.47
2018-11-28T09:07:29.482Z,0.40
2018-11-28T09:08:29.505Z,0.40
2018-11-28T09:09:29.532Z,0.26
2018-11-28T09:10:29.555Z,0.19
2018-11-28T09:11:29.576Z,0.24
2018-11-28T09:12:29.600Z,0.13
2018-11-28T09:13:29.623Z,0.16
2018-11-28T09:14:29.646Z,0.20
2018-11-28T09:15:29.672Z,0.09
2018-11-28T09:16:29.695Z,0.01
2018-11-28T09:17:29.735Z,0.01
2018-11-28T09:18:29.740Z,0.06
2018-11-28T09:19:29.770Z,0.18
2018-11-28T09:20:29.787Z,0.09
2018-11-28T09:21:29.814Z,0.15
2018-11-28T09:22:29.835Z,0.02
2018-11-28T09:23:29.858Z,-0.10
2018-11-28T09:24:29.935Z,0.08
2018-11-28T09:25:29.907Z,0.05
2018-11-28T09:26:29.928Z,0.02
2018-11-28T09:27:29.955Z,0.05
2018-11-28T09:28:29.977Z,0.16
2018-11-28T09:29:30.003Z,0.09
2018-11-28T09:30:30.026Z,0.12
2018-11-28T09:31:30.049Z,0.05
2018-11-28T09:32:30.069Z,0.15
2018-11-28T09:33:30.095Z,0.15
2018-11-28T09:34:30.116Z,0.08
2018-11-28T09:35:30.141Z,0.01
2018-11-28T09:36:30.164Z,0.09
2018-11-28T09:37:30.189Z,0.08
2018-11-28T09:38:30.214Z,0.09
2018-11-28T09:39:30.234Z,0.09
2018-11-28T09:40:30.262Z,0.09
2018-11-28T09:41:30.283Z,0.19
2018-11-28T09:42:30.305Z,0.19
2018-11-28T09:43:30.328Z,0.19
2018-11-28T09:44:30.353Z,0.30
2018-11-28T09:45:30.377Z,0.31
2018-11-28T09:46:30.399Z,0.27
2018-11-28T09:47:30.429Z,0.18
2018-11-28T09:48:30.447Z,0.18
2018-11-28T09:49:30.476Z,0.08
2018-11-28T09:50:30.496Z,0.16
2018-11-28T09:51:30.520Z,0.09
2018-11-28T09:52:30.544Z,0.11
2018-11-28T09:53:30.566Z,0.20
2018-11-28T09:54:30.590Z,0.19
2018-11-28T09:55:30.614Z,0.19
2018-11-28T09:56:30.640Z,0.19
2018-11-28T09:57:30.662Z,0.26
2018-11-28T09:58:30.683Z,0.23
2018-11-28T09:59:30.708Z,0.31
2018-11-28T10:00:30.738Z,0.20
2018-11-28T10:01:30.757Z,0.19
2018-11-28T10:02:30.779Z,0.15
2018-11-28T10:03:30.802Z,0.19
2018-11-28T10:04:30.826Z,0.19
2018-11-28T10:05:30.888Z,0.19
2018-11-28T10:06:30.873Z,0.31
2018-11-28T10:07:30.896Z,0.36
2018-11-28T10:08:30.925Z,0.30
2018-11-28T10:09:30.947Z,0.24
2018-11-28T10:10:30.970Z,0.23
2018-11-28T10:11:30.991Z,0.33
2018-11-28T10:12:31.017Z,0.34
2018-11-28T10:13:31.084Z,0.19
2018-11-28T10:14:31.063Z,0.29
2018-11-28T10:15:35.587Z,0.26
2018-11-28T10:16:31.114Z,0.44
2018-11-28T10:17:31.135Z,0.33
2018-11-28T10:18:31.157Z,0.42
2018-11-28T10:19:31.184Z,0.45
2018-11-28T10:20:31.205Z,0.47
2018-11-28T10:21:31.230Z,0.49
2018-11-28T10:22:31.253Z,0.49
2018-11-28T10:23:31.278Z,0.42
2018-11-28T10:24:31.308Z,0.42
2018-11-28T10:25:31.330Z,0.40
2018-11-28T10:26:31.351Z,0.42
2018-11-28T10:27:31.377Z,0.45
2018-11-28T10:28:31.397Z,0.42
2018-11-28T10:29:31.420Z,0.51
2018-11-28T10:30:31.449Z,0.56
2018-11-28T10:31:31.470Z,0.51
2018-11-28T10:32:31.496Z,0.44
2018-11-28T10:33:31.520Z,0.44
2018-11-28T10:34:31.540Z,0.63
2018-11-28T10:35:31.566Z,0.42
2018-11-28T10:36:31.590Z,0.47
2018-11-28T10:37:31.613Z,0.33
2018-11-28T10:38:31.649Z,0.30
2018-11-28T10:39:31.664Z,0.27
2018-11-28T10:40:31.685Z,0.23
2018-11-28T10:41:31.710Z,0.19
2018-11-28T10:42:31.733Z,0.27
2018-11-28T10:43:31.765Z,0.30
2018-11-28T10:44:31.781Z,0.27
2018-11-28T10:45:31.805Z,0.27
2018-11-28T10:46:31.828Z,0.31
2018-11-28T10:47:31.853Z,0.24
2018-11-28T10:48:31.878Z,0.42
2018-11-28T10:49:31.902Z,0.42
2018-11-28T10:50:31.924Z,0.36
2018-11-28T10:51:31.951Z,0.52
2018-11-28T10:52:31.975Z,0.44
2018-11-28T10:53:31.999Z,0.47
2018-11-28T10:54:32.023Z,0.52
2018-11-28T10:55:32.045Z,0.48
2018-11-28T10:56:32.070Z,0.44
2018-11-28T10:57:32.093Z,0.40
2018-11-28T10:58:32.117Z,0.33
2018-11-28T10:59:32.161Z,0.40
2018-11-28T11:00:32.166Z,0.33
2018-11-28T11:01:32.188Z,0.31
2018-11-28T11:02:32.211Z,0.33
2018-11-28T11:03:32.236Z,0.26
2018-11-28T11:04:32.259Z,0.34
2018-11-28T11:05:32.285Z,0.31
2018-11-28T11:06:32.307Z,0.44
2018-11-28T11:07:32.332Z,0.45
2018-11-28T11:08:32.355Z,0.45
2018-11-28T11:09:32.381Z,0.42
2018-11-28T11:10:32.403Z,0.44
2018-11-28T11:11:32.428Z,0.40
2018-11-28T11:12:32.455Z,0.47
2018-11-28T11:13:32.479Z,0.42
2018-11-28T11:14:32.499Z,0.45
2018-11-28T11:15:32.524Z,0.51
2018-11-28T11:16:32.549Z,0.49
2018-11-28T11:17:32.572Z,0.45
2018-11-28T11:18:32.599Z,0.49
2018-11-28T11:19:32.621Z,0.68
2018-11-28T11:20:32.650Z,0.67
2018-11-28T11:21:32.668Z,1.20
2018-11-28T11:22:32.694Z,1.32
2018-11-28T11:23:32.721Z,1.10
2018-11-28T11:24:32.740Z,1.18
2018-11-28T11:25:32.767Z,1.06
2018-11-28T11:26:32.792Z,1.02
2018-11-28T11:27:32.818Z,1.02
2018-11-28T11:28:32.842Z,0.78
2018-11-28T11:29:32.864Z,0.92
2018-11-28T11:30:32.892Z,0.74
2018-11-28T11:31:32.911Z,0.74
2018-11-28T11:32:32.937Z,0.89
2018-11-28T11:33:32.959Z,0.68
2018-11-28T11:34:33.018Z,0.89
2018-11-28T11:35:33.010Z,0.89
2018-11-28T11:36:33.033Z,0.70
2018-11-28T11:37:33.057Z,0.63
2018-11-28T11:38:33.080Z,0.59
2018-11-28T11:39:33.104Z,0.67
2018-11-28T11:40:33.151Z,0.70
2018-11-28T11:41:33.157Z,0.70
2018-11-28T11:42:33.184Z,0.66
2018-11-28T11:43:33.203Z,0.58
2018-11-28T11:44:33.224Z,0.51
2018-11-28T11:45:33.250Z,0.51
2018-11-28T11:46:33.277Z,0.49
2018-11-28T11:47:33.300Z,0.59
2018-11-28T11:48:33.321Z,0.64
2018-11-28T11:49:33.345Z,0.59
2018-11-28T11:50:33.368Z,0.51
2018-11-28T11:51:33.394Z,0.45
2018-11-28T11:52:33.423Z,0.56
2018-11-28T11:53:33.442Z,0.49
2018-11-28T11:54:33.465Z,0.48
2018-11-28T11:55:34.118Z,0.58
2018-11-28T11:56:33.604Z,0.44
2018-11-28T11:57:33.540Z,0.49
2018-11-28T11:58:33.560Z,0.55
2018-11-28T11:59:33.585Z,0.58
2018-11-28T12:00:33.613Z,0.68
2018-11-28T12:01:33.634Z,0.63
2018-11-28T12:02:33.656Z,0.70
2018-11-28T12:03:33.683Z,0.71
2018-11-28T12:04:33.704Z,0.67
2018-11-28T12:05:33.727Z,0.63
2018-11-28T12:06:33.752Z,0.59
2018-11-28T12:07:33.774Z,0.52
2018-11-28T12:08:33.800Z,0.59
2018-11-28T12:09:33.825Z,0.61
2018-11-28T12:10:33.848Z,0.59
2018-11-28T12:11:33.872Z,0.63
2018-11-28T12:12:33.894Z,0.68
2018-11-28T12:13:33.921Z,0.56
2018-11-28T12:14:33.943Z,0.42
2018-11-28T12:15:33.965Z,0.45
2018-11-28T12:16:33.990Z,0.26
2018-11-28T12:17:34.013Z,0.31
2018-11-28T12:18:34.037Z,0.48
2018-11-28T12:19:34.061Z,0.42
2018-11-28T12:20:34.137Z,0.40
2018-11-28T12:21:34.110Z,0.44
2018-11-28T12:22:34.129Z,0.48
2018-11-28T12:23:34.153Z,0.51
2018-11-28T12:24:34.183Z,0.49
2018-11-28T12:25:34.201Z,0.47
2018-11-28T12:26:34.229Z,0.49
2018-11-28T12:27:34.249Z,0.37
2018-11-28T12:28:34.270Z,0.48
2018-11-28T12:29:34.295Z,0.44
2018-11-28T12:30:34.317Z,0.49
2018-11-28T12:31:34.348Z,0.42
2018-11-28T12:32:34.365Z,0.27
2018-11-28T12:33:34.389Z,0.29
2018-11-28T12:34:34.415Z,0.23
2018-11-28T12:35:34.437Z,0.15
2018-11-28T12:36:34.459Z,0.11
2018-11-28T12:37:34.482Z,0.06
2018-11-28T12:38:34.508Z,0.05
2018-11-28T12:39:34.529Z,-0.02
2018-11-28T12:40:34.551Z,-0.05
2018-11-28T12:41:34.575Z,-0.13
2018-11-28T12:42:34.599Z,-0.17
2018-11-28T12:43:34.621Z,-0.20
2018-11-28T12:44:34.645Z,-0.41
2018-11-28T12:45:34.671Z,-0.44
2018-11-28T12:46:34.691Z,-0.49
2018-11-28T12:47:34.714Z,-0.38
2018-11-28T12:48:34.736Z,-0.57
2018-11-28T12:49:34.761Z,-0.62
2018-11-28T12:50:34.784Z,-0.67
2018-11-28T12:51:34.804Z,-0.75
2018-11-28T12:52:34.827Z,-0.82
2018-11-28T12:53:34.847Z,-0.91
2018-11-28T12:54:34.874Z,-0.89
2018-11-28T12:55:34.895Z,-0.94
2018-11-28T12:56:34.916Z,-1.00
2018-11-28T12:57:34.940Z,-1.12
2018-11-28T12:58:34.961Z,-1.07
2018-11-28T12:59:34.984Z,-1.07
2018-11-28T13:00:35.005Z,-1.18
2018-11-28T13:01:35.028Z,-1.19
2018-11-28T13:02:35.049Z,-1.21
2018-11-28T13:03:35.075Z,-1.27
2018-11-28T13:04:35.094Z,-1.22
2018-11-28T13:05:35.118Z,-1.25
2018-11-28T13:06:35.137Z,-1.30
2018-11-28T13:07:35.159Z,-1.36
2018-11-28T13:08:35.182Z,-1.45
2018-11-28T13:09:35.204Z,-1.54
2018-11-28T13:10:35.229Z,-1.61